Bafia Airport


Codes: FKAF/
Name: Bafia Airport
City: Bafia
Country: Cameroon
Elevation: 1591 ft.

Photos at Bafia Airport


   Photos courtesy of SpottingLog. You can add your own sightings and photos by signing up for a free trial today.



No photos found.

Weather at Bafia Airport


Time (UTC)DescriptionTempratureWindCloud coverageVisibilityPressureHumidity
16-Jun-2024 12:00Light Rain23°C2 mph, NE100%10000m1014hPa92%
16-Jun-2024 15:00Light Rain23°C0 mph, N100%10000m1012hPa90%
16-Jun-2024 18:00Overcast Clouds22°C2 mph, W99%10000m1012hPa95%
16-Jun-2024 21:00Broken Clouds20°C2 mph, SW82%10000m1014hPa97%
17-Jun-2024 00:00Broken Clouds20°C2 mph, W81%10000m1014hPa96%
17-Jun-2024 03:00Overcast Clouds20°C2 mph, SW100%10000m1014hPa97%
17-Jun-2024 06:00Overcast Clouds21°C2 mph, SW98%10000m1015hPa96%
17-Jun-2024 09:00Light Rain25°C2 mph, SW100%10000m1016hPa79%
17-Jun-2024 12:00Light Rain27°C4 mph, S96%10000m1013hPa71%
17-Jun-2024 15:00Light Rain26°C4 mph, SW61%10000m1011hPa82%
17-Jun-2024 18:00Light Rain22°C2 mph, SW42%10000m1012hPa95%
17-Jun-2024 21:00Few Clouds21°C2 mph, SW15%10000m1013hPa97%
18-Jun-2024 00:00Scattered Clouds20°C0 mph, W39%10000m1013hPa98%
18-Jun-2024 03:00Broken Clouds20°C2 mph, SW69%10000m1013hPa98%
18-Jun-2024 06:00Overcast Clouds21°C0 mph, S85%10000m1014hPa98%
18-Jun-2024 09:00Overcast Clouds25°C2 mph, NW100%10000m1015hPa85%
18-Jun-2024 12:00Light Rain26°C2 mph, NW100%10000m1013hPa81%
18-Jun-2024 15:00Light Rain27°C4 mph, NW94%10000m1011hPa71%
18-Jun-2024 18:00Broken Clouds23°C2 mph, W58%10000m1012hPa87%
18-Jun-2024 21:00Light Rain21°C4 mph, SW38%9040m1014hPa98%
19-Jun-2024 00:00Moderate Rain20°C0 mph, N69%6838m1013hPa99%
19-Jun-2024 03:00Light Rain20°C0 mph, W100%10000m1013hPa98%
19-Jun-2024 06:00Overcast Clouds21°C0 mph, S97%10000m1014hPa97%
19-Jun-2024 09:00Overcast Clouds25°C0 mph, SE98%10000m1014hPa80%
19-Jun-2024 12:00Light Rain28°C2 mph, S93%10000m1012hPa69%
19-Jun-2024 15:00Light Rain28°C2 mph, SW66%7197m1010hPa75%
19-Jun-2024 18:00Light Rain23°C0 mph, NW57%10000m1011hPa90%
19-Jun-2024 21:00Light Rain21°C0 mph, N100%10000m1014hPa97%
20-Jun-2024 00:00Light Rain21°C2 mph, W100%10000m1012hPa97%
20-Jun-2024 03:00Overcast Clouds21°C2 mph, SW94%10000m1011hPa99%
20-Jun-2024 06:00Overcast Clouds22°C0 mph, N97%10000m1013hPa97%
20-Jun-2024 09:00Overcast Clouds25°C0 mph, S100%10000m1014hPa82%
20-Jun-2024 12:00Light Rain29°C2 mph, S89%10000m1012hPa67%
20-Jun-2024 15:00Light Rain27°C4 mph, SW56%10000m1010hPa85%
20-Jun-2024 18:00Light Rain23°C2 mph, W78%10000m1012hPa92%
20-Jun-2024 21:00Moderate Rain22°C2 mph, SW100%10000m1013hPa96%
21-Jun-2024 00:00Light Rain21°C2 mph, SW97%10000m1013hPa98%
21-Jun-2024 03:00Light Rain21°C2 mph, W98%10000m1013hPa99%
21-Jun-2024 06:00Overcast Clouds22°C0 mph, NW98%10000m1015hPa98%
21-Jun-2024 09:00Overcast Clouds26°C2 mph, W97%10000m1015hPa80%